Colcord, Oklahoma
Current Conditions -  °F | °C
As of 12:55 AM on Saturday 25 Oct 2014 (Local Time) from KSLG Reporting Station
Clear Clear  
Wind Chill: 61°   Ceiling: Unl
Heat Index: 61°   Visibility: 10mi
Dew Point: 54°   Wind: 7mph
Humidity: 77%   Direction: 190°S
Pressure: 30.09"   Gusts: NA
Location:  36.26°N, 94.69°W
Report Text: KSLG 250555Z AUTO 19006KT 10SM CLR 16/12 A3009 RMK AO1 10180 20150 57003
Loading
Personal Weather Stations






























Interactive Weather Map
Tropical Storm Tracking
New forecast layout! Learn more

10-Day Weather Forecast

Advertisements
Track Severe Weather on mobile